Terminal Aerodrome Forecast
Issued by NWS Bismarck, ND

Home | Current Version | Previous Version | Graphics & Text | Print | Product List | Glossary On
Versions: 1 2 3 4 5 6 7 8 9 10 11 12 13 14 15 16 17
000
FTUS43 KBIS 221139
TAFBIS
TAF
KBIS 221139Z 2212/2312 03003KT P6SM VCSH BKN080
     FM221500 35008KT P6SM BKN100
     FM221800 35013KT P6SM VCSH BKN045
     FM222300 35013KT P6SM OVC045
     FM231100 35008KT P6SM BKN060=

USA.gov is the U.S. government's official web portal to all federal, state and local government web resources and services.